sensor_id;sensor_type;location;lat;lon;timestamp;P1;durP1;ratioP1;P2;durP2;ratioP2
49502;SDS011;35409;48.776;9.204;2023-04-15T00:00:20;7.30;;;2.70;;
49502;SDS011;35409;48.776;9.204;2023-04-15T00:02:46;4.88;;;2.90;;
49502;SDS011;35409;48.776;9.204;2023-04-15T00:05:12;10.43;;;3.78;;
49502;SDS011;35409;48.776;9.204;2023-04-15T00:07:37;5.72;;;2.55;;
49502;SDS011;35409;48.776;9.204;2023-04-15T00:10:04;6.32;;;3.10;;
49502;SDS011;35409;48.776;9.204;2023-04-15T00:12:30;8.35;;;4.18;;
49502;SDS011;35409;48.776;9.204;2023-04-15T00:14:56;10.10;;;3.78;;
49502;SDS011;35409;48.776;9.204;2023-04-15T00:17:23;8.98;;;2.97;;
49502;SDS011;35409;48.776;9.204;2023-04-15T00:19:48;6.90;;;2.80;;
49502;SDS011;35409;48.776;9.204;2023-04-15T00:22:14;7.13;;;3.47;;
49502;SDS011;35409;48.776;9.204;2023-04-15T00:24:40;8.82;;;2.78;;
49502;SDS011;35409;48.776;9.204;2023-04-15T00:27:06;8.02;;;3.00;;
49502;SDS011;35409;48.776;9.204;2023-04-15T00:29:32;9.35;;;3.50;;
49502;SDS011;35409;48.776;9.204;2023-04-15T00:31:58;8.88;;;3.13;;
49502;SDS011;35409;48.776;9.204;2023-04-15T00:34:23;7.28;;;3.00;;
49502;SDS011;35409;48.776;9.204;2023-04-15T00:36:49;8.88;;;3.25;;
49502;SDS011;35409;48.776;9.204;2023-04-15T00:39:16;8.40;;;2.97;;
49502;SDS011;35409;48.776;9.204;2023-04-15T00:41:42;6.70;;;3.42;;
49502;SDS011;35409;48.776;9.204;2023-04-15T00:44:08;7.30;;;3.20;;
49502;SDS011;35409;48.776;9.204;2023-04-15T00:46:34;6.43;;;2.58;;
49502;SDS011;35409;48.776;9.204;2023-04-15T00:49:04;8.43;;;2.90;;
49502;SDS011;35409;48.776;9.204;2023-04-15T00:51:31;9.13;;;3.17;;
49502;SDS011;35409;48.776;9.204;2023-04-15T00:54:06;7.65;;;3.17;;
49502;SDS011;35409;48.776;9.204;2023-04-15T00:56:35;8.48;;;3.70;;
49502;SDS011;35409;48.776;9.204;2023-04-15T01:01:28;10.15;;;4.00;;
49502;SDS011;35409;48.776;9.204;2023-04-15T01:03:55;7.47;;;3.10;;
49502;SDS011;35409;48.776;9.204;2023-04-15T01:06:22;8.93;;;3.35;;
49502;SDS011;35409;48.776;9.204;2023-04-15T01:08:48;7.82;;;3.08;;
49502;SDS011;35409;48.776;9.204;2023-04-15T01:11:14;6.68;;;3.03;;
49502;SDS011;35409;48.776;9.204;2023-04-15T01:13:41;7.45;;;3.10;;
49502;SDS011;35409;48.776;9.204;2023-04-15T01:16:07;11.05;;;3.03;;
49502;SDS011;35409;48.776;9.204;2023-04-15T01:18:34;4.35;;;2.20;;
49502;SDS011;35409;48.776;9.204;2023-04-15T01:21:03;4.40;;;2.70;;
49502;SDS011;35409;48.776;9.204;2023-04-15T01:23:30;5.47;;;2.63;;
49502;SDS011;35409;48.776;9.204;2023-04-15T01:25:56;9.55;;;2.95;;
49502;SDS011;35409;48.776;9.204;2023-04-15T01:28:22;6.03;;;2.97;;
49502;SDS011;35409;48.776;9.204;2023-04-15T01:30:48;8.25;;;3.25;;
49502;SDS011;35409;48.776;9.204;2023-04-15T01:33:13;8.43;;;3.10;;
49502;SDS011;35409;48.776;9.204;2023-04-15T01:35:39;8.55;;;3.10;;
49502;SDS011;35409;48.776;9.204;2023-04-15T01:38:08;11.07;;;3.90;;
49502;SDS011;35409;48.776;9.204;2023-04-15T01:40:34;8.57;;;3.65;;
49502;SDS011;35409;48.776;9.204;2023-04-15T01:43:00;11.43;;;3.80;;
49502;SDS011;35409;48.776;9.204;2023-04-15T01:45:26;10.05;;;3.30;;
49502;SDS011;35409;48.776;9.204;2023-04-15T01:47:52;10.07;;;3.33;;
49502;SDS011;35409;48.776;9.204;2023-04-15T01:50:18;6.22;;;3.30;;
49502;SDS011;35409;48.776;9.204;2023-04-15T01:52:44;11.95;;;3.67;;
49502;SDS011;35409;48.776;9.204;2023-04-15T01:55:11;7.32;;;3.47;;
49502;SDS011;35409;48.776;9.204;2023-04-15T01:57:37;8.15;;;3.60;;
49502;SDS011;35409;48.776;9.204;2023-04-15T02:00:03;11.15;;;3.60;;
49502;SDS011;35409;48.776;9.204;2023-04-15T02:02:28;5.50;;;3.03;;
49502;SDS011;35409;48.776;9.204;2023-04-15T02:04:54;7.78;;;3.92;;
49502;SDS011;35409;48.776;9.204;2023-04-15T02:07:20;9.93;;;3.67;;
49502;SDS011;35409;48.776;9.204;2023-04-15T02:09:46;11.45;;;4.30;;
49502;SDS011;35409;48.776;9.204;2023-04-15T02:12:11;13.20;;;4.00;;
49502;SDS011;35409;48.776;9.204;2023-04-15T02:14:37;11.00;;;3.55;;
49502;SDS011;35409;48.776;9.204;2023-04-15T02:17:03;7.75;;;3.58;;
49502;SDS011;35409;48.776;9.204;2023-04-15T02:19:32;8.77;;;3.67;;
49502;SDS011;35409;48.776;9.204;2023-04-15T02:21:59;13.50;;;3.78;;
49502;SDS011;35409;48.776;9.204;2023-04-15T02:24:26;12.35;;;4.15;;
49502;SDS011;35409;48.776;9.204;2023-04-15T02:26:53;6.47;;;3.55;;
49502;SDS011;35409;48.776;9.204;2023-04-15T02:29:18;7.43;;;3.38;;
49502;SDS011;35409;48.776;9.204;2023-04-15T02:31:44;8.32;;;3.38;;
49502;SDS011;35409;48.776;9.204;2023-04-15T02:34:09;6.70;;;3.60;;
49502;SDS011;35409;48.776;9.204;2023-04-15T02:36:35;8.57;;;3.38;;
49502;SDS011;35409;48.776;9.204;2023-04-15T02:39:01;10.48;;;3.60;;
49502;SDS011;35409;48.776;9.204;2023-04-15T02:41:28;8.73;;;3.47;;
49502;SDS011;35409;48.776;9.204;2023-04-15T02:43:54;8.32;;;3.38;;
49502;SDS011;35409;48.776;9.204;2023-04-15T02:46:20;7.47;;;3.63;;
49502;SDS011;35409;48.776;9.204;2023-04-15T02:48:46;8.13;;;3.35;;
49502;SDS011;35409;48.776;9.204;2023-04-15T02:51:13;7.38;;;3.17;;
49502;SDS011;35409;48.776;9.204;2023-04-15T02:53:46;6.70;;;3.40;;
49502;SDS011;35409;48.776;9.204;2023-04-15T02:56:13;10.18;;;4.57;;
49502;SDS011;35409;48.776;9.204;2023-04-15T02:58:39;8.57;;;3.78;;
49502;SDS011;35409;48.776;9.204;2023-04-15T03:01:06;9.57;;;3.75;;
49502;SDS011;35409;48.776;9.204;2023-04-15T03:03:32;6.70;;;3.55;;
49502;SDS011;35409;48.776;9.204;2023-04-15T03:05:58;8.02;;;3.42;;
49502;SDS011;35409;48.776;9.204;2023-04-15T03:08:24;8.27;;;3.78;;
49502;SDS011;35409;48.776;9.204;2023-04-15T03:10:50;8.68;;;3.90;;
49502;SDS011;35409;48.776;9.204;2023-04-15T03:13:16;9.13;;;3.55;;
49502;SDS011;35409;48.776;9.204;2023-04-15T03:15:42;5.88;;;3.40;;
49502;SDS011;35409;48.776;9.204;2023-04-15T03:18:08;7.22;;;3.42;;
49502;SDS011;35409;48.776;9.204;2023-04-15T03:20:33;8.68;;;3.47;;
49502;SDS011;35409;48.776;9.204;2023-04-15T03:22:59;7.25;;;3.47;;
49502;SDS011;35409;48.776;9.204;2023-04-15T03:25:25;6.78;;;3.42;;
49502;SDS011;35409;48.776;9.204;2023-04-15T03:27:51;9.05;;;4.15;;
49502;SDS011;35409;48.776;9.204;2023-04-15T03:30:17;10.95;;;4.68;;
49502;SDS011;35409;48.776;9.204;2023-04-15T03:32:42;7.90;;;4.00;;
49502;SDS011;35409;48.776;9.204;2023-04-15T03:35:08;12.48;;;4.53;;
49502;SDS011;35409;48.776;9.204;2023-04-15T03:37:33;11.80;;;4.20;;
49502;SDS011;35409;48.776;9.204;2023-04-15T03:39:59;12.00;;;4.30;;
49502;SDS011;35409;48.776;9.204;2023-04-15T03:42:25;7.90;;;3.38;;
49502;SDS011;35409;48.776;9.204;2023-04-15T03:44:51;11.18;;;4.45;;
49502;SDS011;35409;48.776;9.204;2023-04-15T03:47:16;9.15;;;4.03;;
49502;SDS011;35409;48.776;9.204;2023-04-15T03:49:42;14.38;;;4.53;;
49502;SDS011;35409;48.776;9.204;2023-04-15T03:52:07;10.75;;;4.13;;
49502;SDS011;35409;48.776;9.204;2023-04-15T03:54:33;11.07;;;4.72;;
49502;SDS011;35409;48.776;9.204;2023-04-15T03:56:59;9.10;;;3.80;;
49502;SDS011;35409;48.776;9.204;2023-04-15T03:59:25;8.80;;;4.55;;
49502;SDS011;35409;48.776;9.204;2023-04-15T04:01:50;15.40;;;4.40;;
49502;SDS011;35409;48.776;9.204;2023-04-15T04:04:16;15.05;;;4.15;;
49502;SDS011;35409;48.776;9.204;2023-04-15T04:06:42;10.43;;;4.10;;
49502;SDS011;35409;48.776;9.204;2023-04-15T04:09:07;14.75;;;4.50;;
49502;SDS011;35409;48.776;9.204;2023-04-15T04:11:33;9.35;;;3.20;;
49502;SDS011;35409;48.776;9.204;2023-04-15T04:13:58;6.72;;;3.25;;
49502;SDS011;35409;48.776;9.204;2023-04-15T04:16:24;6.65;;;3.33;;
49502;SDS011;35409;48.776;9.204;2023-04-15T04:18:50;12.30;;;3.60;;
49502;SDS011;35409;48.776;9.204;2023-04-15T04:21:16;10.60;;;4.13;;
49502;SDS011;35409;48.776;9.204;2023-04-15T04:23:41;8.52;;;3.65;;
49502;SDS011;35409;48.776;9.204;2023-04-15T04:26:07;10.27;;;4.32;;
49502;SDS011;35409;48.776;9.204;2023-04-15T04:28:33;9.05;;;4.10;;
49502;SDS011;35409;48.776;9.204;2023-04-15T04:30:59;7.25;;;4.30;;
49502;SDS011;35409;48.776;9.204;2023-04-15T04:33:25;10.95;;;4.35;;
49502;SDS011;35409;48.776;9.204;2023-04-15T04:35:50;10.70;;;4.72;;
49502;SDS011;35409;48.776;9.204;2023-04-15T04:38:16;9.98;;;4.88;;
49502;SDS011;35409;48.776;9.204;2023-04-15T04:40:41;10.95;;;5.18;;
49502;SDS011;35409;48.776;9.204;2023-04-15T04:43:07;11.95;;;5.18;;
49502;SDS011;35409;48.776;9.204;2023-04-15T04:45:34;8.40;;;4.07;;
49502;SDS011;35409;48.776;9.204;2023-04-15T04:48:00;6.93;;;4.43;;
49502;SDS011;35409;48.776;9.204;2023-04-15T04:50:25;7.82;;;3.97;;
49502;SDS011;35409;48.776;9.204;2023-04-15T04:52:51;9.73;;;4.65;;
49502;SDS011;35409;48.776;9.204;2023-04-15T04:55:16;11.57;;;4.30;;
49502;SDS011;35409;48.776;9.204;2023-04-15T04:57:42;11.13;;;4.97;;
49502;SDS011;35409;48.776;9.204;2023-04-15T05:00:09;15.48;;;6.05;;
49502;SDS011;35409;48.776;9.204;2023-04-15T05:02:35;12.00;;;5.43;;
49502;SDS011;35409;48.776;9.204;2023-04-15T05:05:01;11.57;;;5.13;;
49502;SDS011;35409;48.776;9.204;2023-04-15T05:07:26;11.32;;;4.80;;
49502;SDS011;35409;48.776;9.204;2023-04-15T05:09:52;16.15;;;4.38;;
49502;SDS011;35409;48.776;9.204;2023-04-15T05:12:17;15.20;;;5.07;;
49502;SDS011;35409;48.776;9.204;2023-04-15T05:14:43;11.05;;;4.78;;
49502;SDS011;35409;48.776;9.204;2023-04-15T05:17:10;10.40;;;4.78;;
49502;SDS011;35409;48.776;9.204;2023-04-15T05:19:36;13.20;;;5.60;;
49502;SDS011;35409;48.776;9.204;2023-04-15T05:22:02;11.43;;;5.57;;
49502;SDS011;35409;48.776;9.204;2023-04-15T05:24:27;11.10;;;5.30;;
49502;SDS011;35409;48.776;9.204;2023-04-15T05:26:53;11.02;;;4.68;;
49502;SDS011;35409;48.776;9.204;2023-04-15T05:29:19;12.57;;;4.75;;
49502;SDS011;35409;48.776;9.204;2023-04-15T05:31:44;12.82;;;4.60;;
49502;SDS011;35409;48.776;9.204;2023-04-15T05:34:10;9.07;;;3.95;;
49502;SDS011;35409;48.776;9.204;2023-04-15T05:36:36;12.57;;;4.45;;
49502;SDS011;35409;48.776;9.204;2023-04-15T05:39:02;11.63;;;4.10;;
49502;SDS011;35409;48.776;9.204;2023-04-15T05:41:28;7.30;;;4.63;;
49502;SDS011;35409;48.776;9.204;2023-04-15T05:43:54;10.63;;;5.22;;
49502;SDS011;35409;48.776;9.204;2023-04-15T05:46:19;13.15;;;6.10;;
49502;SDS011;35409;48.776;9.204;2023-04-15T05:48:45;12.75;;;5.70;;
49502;SDS011;35409;48.776;9.204;2023-04-15T05:51:11;10.95;;;5.10;;
49502;SDS011;35409;48.776;9.204;2023-04-15T05:53:36;11.13;;;3.88;;
49502;SDS011;35409;48.776;9.204;2023-04-15T05:56:02;10.25;;;3.75;;
49502;SDS011;35409;48.776;9.204;2023-04-15T05:58:28;6.78;;;3.80;;
49502;SDS011;35409;48.776;9.204;2023-04-15T06:00:53;10.23;;;3.42;;
49502;SDS011;35409;48.776;9.204;2023-04-15T06:03:19;11.50;;;4.20;;
49502;SDS011;35409;48.776;9.204;2023-04-15T06:05:44;17.73;;;5.75;;
49502;SDS011;35409;48.776;9.204;2023-04-15T06:08:10;11.18;;;5.03;;
49502;SDS011;35409;48.776;9.204;2023-04-15T06:10:36;10.30;;;6.00;;
49502;SDS011;35409;48.776;9.204;2023-04-15T06:13:02;13.32;;;5.90;;
49502;SDS011;35409;48.776;9.204;2023-04-15T06:15:28;11.02;;;5.45;;
49502;SDS011;35409;48.776;9.204;2023-04-15T06:17:54;12.05;;;5.78;;
49502;SDS011;35409;48.776;9.204;2023-04-15T06:20:20;10.52;;;5.43;;
49502;SDS011;35409;48.776;9.204;2023-04-15T06:22:45;10.43;;;5.35;;
49502;SDS011;35409;48.776;9.204;2023-04-15T06:25:11;11.80;;;5.70;;
49502;SDS011;35409;48.776;9.204;2023-04-15T06:27:37;13.13;;;5.97;;
49502;SDS011;35409;48.776;9.204;2023-04-15T06:30:03;15.65;;;6.22;;
49502;SDS011;35409;48.776;9.204;2023-04-15T06:32:29;13.70;;;5.95;;
49502;SDS011;35409;48.776;9.204;2023-04-15T06:34:54;14.63;;;6.55;;
49502;SDS011;35409;48.776;9.204;2023-04-15T06:37:20;14.45;;;5.93;;
49502;SDS011;35409;48.776;9.204;2023-04-15T06:39:46;12.85;;;6.13;;
49502;SDS011;35409;48.776;9.204;2023-04-15T06:42:11;10.25;;;5.40;;
49502;SDS011;35409;48.776;9.204;2023-04-15T06:44:37;10.55;;;5.38;;
49502;SDS011;35409;48.776;9.204;2023-04-15T06:47:03;14.90;;;5.40;;
49502;SDS011;35409;48.776;9.204;2023-04-15T06:49:29;10.85;;;5.05;;
49502;SDS011;35409;48.776;9.204;2023-04-15T06:51:54;10.50;;;5.00;;
49502;SDS011;35409;48.776;9.204;2023-04-15T06:54:20;9.30;;;4.70;;
49502;SDS011;35409;48.776;9.204;2023-04-15T06:56:46;10.52;;;4.72;;
49502;SDS011;35409;48.776;9.204;2023-04-15T06:59:12;10.68;;;5.10;;
49502;SDS011;35409;48.776;9.204;2023-04-15T07:01:39;11.88;;;5.05;;
49502;SDS011;35409;48.776;9.204;2023-04-15T07:04:05;11.65;;;5.18;;
49502;SDS011;35409;48.776;9.204;2023-04-15T07:06:31;13.48;;;5.18;;
49502;SDS011;35409;48.776;9.204;2023-04-15T07:08:57;7.10;;;4.40;;
49502;SDS011;35409;48.776;9.204;2023-04-15T07:11:24;8.95;;;4.72;;
49502;SDS011;35409;48.776;9.204;2023-04-15T07:13:50;11.52;;;5.35;;
49502;SDS011;35409;48.776;9.204;2023-04-15T07:16:16;8.02;;;4.30;;
49502;SDS011;35409;48.776;9.204;2023-04-15T07:18:42;9.57;;;4.55;;
49502;SDS011;35409;48.776;9.204;2023-04-15T07:21:07;8.52;;;4.97;;
49502;SDS011;35409;48.776;9.204;2023-04-15T07:23:33;11.85;;;4.93;;
49502;SDS011;35409;48.776;9.204;2023-04-15T07:25:59;8.32;;;4.72;;
49502;SDS011;35409;48.776;9.204;2023-04-15T07:28:25;11.25;;;4.85;;
49502;SDS011;35409;48.776;9.204;2023-04-15T07:30:51;7.30;;;4.15;;
49502;SDS011;35409;48.776;9.204;2023-04-15T07:33:16;11.57;;;5.07;;
49502;SDS011;35409;48.776;9.204;2023-04-15T07:35:42;15.77;;;5.20;;
49502;SDS011;35409;48.776;9.204;2023-04-15T07:38:09;7.13;;;4.28;;
49502;SDS011;35409;48.776;9.204;2023-04-15T07:40:36;12.00;;;4.75;;
49502;SDS011;35409;48.776;9.204;2023-04-15T07:43:03;7.97;;;3.78;;
49502;SDS011;35409;48.776;9.204;2023-04-15T07:45:29;7.00;;;4.85;;
49502;SDS011;35409;48.776;9.204;2023-04-15T07:47:55;8.98;;;4.88;;
49502;SDS011;35409;48.776;9.204;2023-04-15T07:50:21;9.75;;;4.05;;
49502;SDS011;35409;48.776;9.204;2023-04-15T07:52:47;8.13;;;4.50;;
49502;SDS011;35409;48.776;9.204;2023-04-15T07:55:16;7.38;;;3.97;;
49502;SDS011;35409;48.776;9.204;2023-04-15T07:57:45;7.60;;;4.10;;
49502;SDS011;35409;48.776;9.204;2023-04-15T08:00:11;11.10;;;4.78;;
49502;SDS011;35409;48.776;9.204;2023-04-15T08:02:37;9.75;;;4.20;;
49502;SDS011;35409;48.776;9.204;2023-04-15T08:05:03;11.30;;;4.50;;
49502;SDS011;35409;48.776;9.204;2023-04-15T08:07:30;9.25;;;4.35;;
49502;SDS011;35409;48.776;9.204;2023-04-15T08:09:55;7.32;;;3.72;;
49502;SDS011;35409;48.776;9.204;2023-04-15T08:12:21;7.72;;;3.80;;
49502;SDS011;35409;48.776;9.204;2023-04-15T08:14:48;18.83;;;4.78;;
49502;SDS011;35409;48.776;9.204;2023-04-15T08:17:15;11.00;;;3.88;;
49502;SDS011;35409;48.776;9.204;2023-04-15T08:19:40;10.75;;;3.92;;
49502;SDS011;35409;48.776;9.204;2023-04-15T08:22:06;11.85;;;4.47;;
49502;SDS011;35409;48.776;9.204;2023-04-15T08:24:32;8.55;;;4.00;;
49502;SDS011;35409;48.776;9.204;2023-04-15T08:26:58;6.95;;;3.90;;
49502;SDS011;35409;48.776;9.204;2023-04-15T08:29:25;9.85;;;4.13;;
49502;SDS011;35409;48.776;9.204;2023-04-15T08:31:51;9.77;;;4.13;;
49502;SDS011;35409;48.776;9.204;2023-04-15T08:34:18;8.88;;;3.72;;
49502;SDS011;35409;48.776;9.204;2023-04-15T08:36:43;10.88;;;4.63;;
49502;SDS011;35409;48.776;9.204;2023-04-15T08:39:09;11.20;;;4.03;;
49502;SDS011;35409;48.776;9.204;2023-04-15T08:44:34;6.38;;;3.08;;
49502;SDS011;35409;48.776;9.204;2023-04-15T08:47:05;8.60;;;4.00;;
49502;SDS011;35409;48.776;9.204;2023-04-15T08:49:32;6.72;;;3.92;;
49502;SDS011;35409;48.776;9.204;2023-04-15T08:52:00;8.10;;;4.00;;
49502;SDS011;35409;48.776;9.204;2023-04-15T08:54:28;8.80;;;4.15;;
49502;SDS011;35409;48.776;9.204;2023-04-15T08:56:56;7.40;;;3.88;;
49502;SDS011;35409;48.776;9.204;2023-04-15T08:59:22;8.90;;;4.07;;
49502;SDS011;35409;48.776;9.204;2023-04-15T09:01:48;7.47;;;3.63;;
49502;SDS011;35409;48.776;9.204;2023-04-15T09:04:17;6.40;;;3.50;;
49502;SDS011;35409;48.776;9.204;2023-04-15T09:06:43;7.50;;;3.50;;
49502;SDS011;35409;48.776;9.204;2023-04-15T09:09:08;8.00;;;3.58;;
49502;SDS011;35409;48.776;9.204;2023-04-15T09:11:34;8.80;;;4.40;;
49502;SDS011;35409;48.776;9.204;2023-04-15T09:14:00;9.02;;;4.22;;
49502;SDS011;35409;48.776;9.204;2023-04-15T09:16:26;9.90;;;3.65;;
49502;SDS011;35409;48.776;9.204;2023-04-15T09:18:52;8.13;;;4.13;;
49502;SDS011;35409;48.776;9.204;2023-04-15T09:21:18;8.77;;;3.97;;
49502;SDS011;35409;48.776;9.204;2023-04-15T09:23:54;7.72;;;4.20;;
49502;SDS011;35409;48.776;9.204;2023-04-15T09:26:35;11.55;;;3.83;;
49502;SDS011;35409;48.776;9.204;2023-04-15T09:29:05;10.73;;;3.25;;
49502;SDS011;35409;48.776;9.204;2023-04-15T09:31:32;7.15;;;2.97;;
49502;SDS011;35409;48.776;9.204;2023-04-15T09:33:57;5.90;;;2.47;;
49502;SDS011;35409;48.776;9.204;2023-04-15T09:36:23;5.53;;;2.55;;
49502;SDS011;35409;48.776;9.204;2023-04-15T09:38:53;5.50;;;2.72;;
49502;SDS011;35409;48.776;9.204;2023-04-15T09:41:20;6.25;;;2.60;;
49502;SDS011;35409;48.776;9.204;2023-04-15T09:43:46;4.47;;;2.38;;
49502;SDS011;35409;48.776;9.204;2023-04-15T09:46:12;6.45;;;2.83;;
49502;SDS011;35409;48.776;9.204;2023-04-15T09:48:38;5.95;;;2.58;;
49502;SDS011;35409;48.776;9.204;2023-04-15T09:51:04;9.55;;;3.40;;
49502;SDS011;35409;48.776;9.204;2023-04-15T09:53:31;6.43;;;2.83;;
49502;SDS011;35409;48.776;9.204;2023-04-15T09:55:59;9.65;;;2.88;;
49502;SDS011;35409;48.776;9.204;2023-04-15T09:58:32;6.75;;;3.05;;
49502;SDS011;35409;48.776;9.204;2023-04-15T10:00:59;3.50;;;2.55;;
49502;SDS011;35409;48.776;9.204;2023-04-15T10:03:28;5.93;;;2.40;;
49502;SDS011;35409;48.776;9.204;2023-04-15T10:05:55;5.40;;;2.50;;
49502;SDS011;35409;48.776;9.204;2023-04-15T10:08:23;7.90;;;2.72;;
49502;SDS011;35409;48.776;9.204;2023-04-15T10:10:51;9.80;;;2.58;;
49502;SDS011;35409;48.776;9.204;2023-04-15T10:13:18;6.28;;;2.45;;
49502;SDS011;35409;48.776;9.204;2023-04-15T10:15:59;6.05;;;2.85;;
49502;SDS011;35409;48.776;9.204;2023-04-15T10:18:29;6.53;;;2.90;;
49502;SDS011;35409;48.776;9.204;2023-04-15T10:20:58;4.15;;;2.10;;
49502;SDS011;35409;48.776;9.204;2023-04-15T10:23:25;5.45;;;2.28;;
49502;SDS011;35409;48.776;9.204;2023-04-15T10:25:52;5.25;;;2.45;;
49502;SDS011;35409;48.776;9.204;2023-04-15T10:28:18;4.72;;;2.33;;
49502;SDS011;35409;48.776;9.204;2023-04-15T10:30:46;7.25;;;3.05;;
49502;SDS011;35409;48.776;9.204;2023-04-15T10:33:13;5.95;;;2.42;;
49502;SDS011;35409;48.776;9.204;2023-04-15T10:35:43;7.00;;;3.08;;
49502;SDS011;35409;48.776;9.204;2023-04-15T10:41:16;7.75;;;2.67;;
49502;SDS011;35409;48.776;9.204;2023-04-15T10:46:39;7.03;;;2.72;;
49502;SDS011;35409;48.776;9.204;2023-04-15T10:49:13;6.30;;;2.47;;
49502;SDS011;35409;48.776;9.204;2023-04-15T10:51:52;7.15;;;1.63;;
49502;SDS011;35409;48.776;9.204;2023-04-15T10:59:29;5.00;;;2.40;;
49502;SDS011;35409;48.776;9.204;2023-04-15T11:01:56;6.63;;;2.28;;
49502;SDS011;35409;48.776;9.204;2023-04-15T11:07:39;8.35;;;2.88;;
49502;SDS011;35409;48.776;9.204;2023-04-15T11:12:56;5.97;;;2.80;;
49502;SDS011;35409;48.776;9.204;2023-04-15T11:17:56;7.45;;;2.83;;
49502;SDS011;35409;48.776;9.204;2023-04-15T11:20:23;7.15;;;3.08;;
49502;SDS011;35409;48.776;9.204;2023-04-15T11:22:49;10.25;;;3.58;;
49502;SDS011;35409;48.776;9.204;2023-04-15T11:25:26;5.43;;;2.67;;
49502;SDS011;35409;48.776;9.204;2023-04-15T11:27:54;5.88;;;3.30;;
49502;SDS011;35409;48.776;9.204;2023-04-15T11:32:47;4.90;;;2.70;;
49502;SDS011;35409;48.776;9.204;2023-04-15T11:35:15;5.30;;;2.38;;
49502;SDS011;35409;48.776;9.204;2023-04-15T11:37:41;5.43;;;2.72;;
49502;SDS011;35409;48.776;9.204;2023-04-15T11:40:07;7.68;;;2.53;;
49502;SDS011;35409;48.776;9.204;2023-04-15T11:42:33;6.43;;;2.78;;
49502;SDS011;35409;48.776;9.204;2023-04-15T11:45:09;8.05;;;2.65;;
49502;SDS011;35409;48.776;9.204;2023-04-15T11:47:38;6.65;;;2.40;;
49502;SDS011;35409;48.776;9.204;2023-04-15T11:50:18;4.22;;;2.50;;
49502;SDS011;35409;48.776;9.204;2023-04-15T11:52:54;7.15;;;2.88;;
49502;SDS011;35409;48.776;9.204;2023-04-15T11:55:21;5.78;;;3.08;;
49502;SDS011;35409;48.776;9.204;2023-04-15T11:57:49;7.63;;;2.95;;
49502;SDS011;35409;48.776;9.204;2023-04-15T12:00:35;11.27;;;3.10;;
49502;SDS011;35409;48.776;9.204;2023-04-15T12:03:18;6.05;;;2.65;;
49502;SDS011;35409;48.776;9.204;2023-04-15T12:13:55;6.05;;;2.75;;
49502;SDS011;35409;48.776;9.204;2023-04-15T12:16:22;8.23;;;2.95;;
49502;SDS011;35409;48.776;9.204;2023-04-15T12:18:52;6.05;;;3.17;;
49502;SDS011;35409;48.776;9.204;2023-04-15T12:21:23;5.63;;;2.80;;
49502;SDS011;35409;48.776;9.204;2023-04-15T12:23:52;5.22;;;2.80;;
49502;SDS011;35409;48.776;9.204;2023-04-15T12:26:25;7.32;;;2.53;;
49502;SDS011;35409;48.776;9.204;2023-04-15T12:28:59;5.30;;;2.50;;
49502;SDS011;35409;48.776;9.204;2023-04-15T12:31:32;8.40;;;3.17;;
49502;SDS011;35409;48.776;9.204;2023-04-15T12:34:02;9.93;;;2.80;;
49502;SDS011;35409;48.776;9.204;2023-04-15T12:36:31;6.10;;;3.13;;
49502;SDS011;35409;48.776;9.204;2023-04-15T12:39:01;7.07;;;3.20;;
49502;SDS011;35409;48.776;9.204;2023-04-15T12:41:28;5.65;;;3.70;;
49502;SDS011;35409;48.776;9.204;2023-04-15T12:43:54;6.55;;;4.05;;
49502;SDS011;35409;48.776;9.204;2023-04-15T12:46:19;6.28;;;3.97;;
49502;SDS011;35409;48.776;9.204;2023-04-15T12:48:45;9.85;;;4.10;;
49502;SDS011;35409;48.776;9.204;2023-04-15T12:51:17;9.48;;;4.15;;
49502;SDS011;35409;48.776;9.204;2023-04-15T12:53:45;6.80;;;4.35;;
49502;SDS011;35409;48.776;9.204;2023-04-15T12:56:11;5.40;;;3.63;;
49502;SDS011;35409;48.776;9.204;2023-04-15T12:58:37;7.53;;;3.88;;
49502;SDS011;35409;48.776;9.204;2023-04-15T13:01:03;6.60;;;3.80;;
49502;SDS011;35409;48.776;9.204;2023-04-15T13:03:30;5.80;;;4.47;;
49502;SDS011;35409;48.776;9.204;2023-04-15T13:05:56;7.55;;;4.55;;
49502;SDS011;35409;48.776;9.204;2023-04-15T13:08:21;7.95;;;3.95;;
49502;SDS011;35409;48.776;9.204;2023-04-15T13:10:47;7.13;;;3.97;;
49502;SDS011;35409;48.776;9.204;2023-04-15T13:13:13;5.18;;;3.90;;
49502;SDS011;35409;48.776;9.204;2023-04-15T13:15:39;6.60;;;3.30;;
49502;SDS011;35409;48.776;9.204;2023-04-15T13:18:05;6.40;;;2.88;;
49502;SDS011;35409;48.776;9.204;2023-04-15T13:20:31;5.05;;;3.05;;
49502;SDS011;35409;48.776;9.204;2023-04-15T13:22:57;5.10;;;3.00;;
49502;SDS011;35409;48.776;9.204;2023-04-15T13:25:23;5.00;;;2.70;;
49502;SDS011;35409;48.776;9.204;2023-04-15T13:27:49;3.88;;;2.60;;
49502;SDS011;35409;48.776;9.204;2023-04-15T13:30:15;5.22;;;2.67;;
49502;SDS011;35409;48.776;9.204;2023-04-15T13:32:41;3.55;;;1.98;;
49502;SDS011;35409;48.776;9.204;2023-04-15T13:35:07;4.22;;;2.22;;
49502;SDS011;35409;48.776;9.204;2023-04-15T13:37:32;7.22;;;2.03;;
49502;SDS011;35409;48.776;9.204;2023-04-15T13:39:58;5.80;;;2.10;;
49502;SDS011;35409;48.776;9.204;2023-04-15T13:42:24;5.75;;;2.25;;
49502;SDS011;35409;48.776;9.204;2023-04-15T13:44:50;3.60;;;2.00;;
49502;SDS011;35409;48.776;9.204;2023-04-15T13:47:16;7.35;;;2.30;;
49502;SDS011;35409;48.776;9.204;2023-04-15T13:49:44;3.60;;;1.90;;
49502;SDS011;35409;48.776;9.204;2023-04-15T13:52:10;5.88;;;2.08;;
49502;SDS011;35409;48.776;9.204;2023-04-15T13:54:37;3.05;;;1.30;;
49502;SDS011;35409;48.776;9.204;2023-04-15T13:57:02;3.25;;;1.20;;
49502;SDS011;35409;48.776;9.204;2023-04-15T13:59:29;3.72;;;1.05;;
49502;SDS011;35409;48.776;9.204;2023-04-15T14:01:55;4.38;;;0.75;;
49502;SDS011;35409;48.776;9.204;2023-04-15T14:04:20;4.03;;;0.80;;
49502;SDS011;35409;48.776;9.204;2023-04-15T14:06:46;3.10;;;0.93;;
49502;SDS011;35409;48.776;9.204;2023-04-15T14:09:12;2.90;;;0.98;;
49502;SDS011;35409;48.776;9.204;2023-04-15T14:11:38;4.15;;;1.17;;
49502;SDS011;35409;48.776;9.204;2023-04-15T14:14:04;2.53;;;0.90;;
49502;SDS011;35409;48.776;9.204;2023-04-15T14:16:31;4.22;;;1.02;;
49502;SDS011;35409;48.776;9.204;2023-04-15T14:18:57;4.70;;;1.50;;
49502;SDS011;35409;48.776;9.204;2023-04-15T14:21:23;1.65;;;0.85;;
49502;SDS011;35409;48.776;9.204;2023-04-15T14:23:50;1.77;;;0.90;;
49502;SDS011;35409;48.776;9.204;2023-04-15T14:26:15;1.90;;;1.17;;
49502;SDS011;35409;48.776;9.204;2023-04-15T14:28:41;2.47;;;0.90;;
49502;SDS011;35409;48.776;9.204;2023-04-15T14:31:08;3.80;;;1.00;;
49502;SDS011;35409;48.776;9.204;2023-04-15T14:33:34;4.47;;;1.00;;
49502;SDS011;35409;48.776;9.204;2023-04-15T14:36:00;1.38;;;0.63;;
49502;SDS011;35409;48.776;9.204;2023-04-15T14:38:26;3.13;;;1.00;;
49502;SDS011;35409;48.776;9.204;2023-04-15T14:40:51;1.63;;;1.05;;
49502;SDS011;35409;48.776;9.204;2023-04-15T14:43:17;3.15;;;1.20;;
49502;SDS011;35409;48.776;9.204;2023-04-15T14:45:42;1.67;;;0.80;;
49502;SDS011;35409;48.776;9.204;2023-04-15T14:48:08;2.17;;;1.05;;
49502;SDS011;35409;48.776;9.204;2023-04-15T14:50:34;2.22;;;1.30;;
49502;SDS011;35409;48.776;9.204;2023-04-15T14:53:00;0.95;;;0.70;;
49502;SDS011;35409;48.776;9.204;2023-04-15T14:55:25;3.88;;;1.23;;
49502;SDS011;35409;48.776;9.204;2023-04-15T14:57:51;2.58;;;1.17;;
49502;SDS011;35409;48.776;9.204;2023-04-15T15:00:17;3.20;;;0.90;;
49502;SDS011;35409;48.776;9.204;2023-04-15T15:02:42;5.90;;;1.33;;
49502;SDS011;35409;48.776;9.204;2023-04-15T15:05:08;3.75;;;1.42;;
49502;SDS011;35409;48.776;9.204;2023-04-15T15:07:34;2.72;;;1.30;;
49502;SDS011;35409;48.776;9.204;2023-04-15T15:10:01;3.30;;;1.13;;
49502;SDS011;35409;48.776;9.204;2023-04-15T15:12:27;2.45;;;1.48;;
49502;SDS011;35409;48.776;9.204;2023-04-15T15:14:53;5.78;;;2.00;;